createdAt,value
2023-05-17T00:04:00.944Z,99685.28
2023-05-17T00:08:13.760Z,99677.31
2023-05-17T00:12:26.887Z,99677.97
2023-05-17T00:16:39.319Z,99673.25
2023-05-17T00:20:51.759Z,99666.16
2023-05-17T00:25:08.326Z,99663.31
2023-05-17T00:29:20.828Z,99670.41
2023-05-17T00:33:33.627Z,99672.94
2023-05-17T00:37:48.242Z,99677.56
2023-05-17T00:42:02.829Z,99680.81
2023-05-17T00:46:16.440Z,99676.03
2023-05-17T00:50:29.110Z,99679.84
2023-05-17T00:54:41.908Z,99675.72
2023-05-17T00:58:54.922Z,99672.78
2023-05-17T01:03:08.530Z,99655.09
2023-05-17T01:07:21.097Z,99649.16
2023-05-17T01:11:53.420Z,99655.00
2023-05-17T01:16:11.106Z,99662.13
2023-05-17T01:20:32.212Z,99666.81
2023-05-17T01:25:16.505Z,99669.38
2023-05-17T01:29:30.560Z,99667.50
2023-05-17T01:33:43.328Z,99669.28
2023-05-17T01:37:56.263Z,99660.44
2023-05-17T01:42:18.873Z,99680.59
2023-05-17T01:46:41.379Z,99679.97
2023-05-17T01:50:57.071Z,99676.56
2023-05-17T01:55:18.351Z,99675.44
2023-05-17T01:59:32.092Z,99669.13
2023-05-17T02:03:48.913Z,99670.59
2023-05-17T02:08:02.864Z,99666.84
2023-05-17T02:12:15.480Z,99665.84
2023-05-17T02:16:34.434Z,99659.34
2023-05-17T02:20:47.085Z,99657.63
2023-05-17T02:24:59.691Z,99643.91
2023-05-17T02:29:12.117Z,99655.41
2023-05-17T02:33:24.726Z,99662.75
2023-05-17T02:37:37.223Z,99665.72
2023-05-17T02:41:50.856Z,99672.88
2023-05-17T02:46:03.237Z,99663.28
2023-05-17T02:50:15.891Z,99671.09
2023-05-17T02:54:28.495Z,99670.97
2023-05-17T02:58:41.792Z,99679.84
2023-05-17T03:02:54.349Z,99668.50
2023-05-17T03:07:07.419Z,99673.03
2023-05-17T03:11:20.744Z,99676.47
2023-05-17T03:15:33.318Z,99674.72
2023-05-17T03:19:46.017Z,99684.31
2023-05-17T03:23:59.070Z,99682.72
2023-05-17T03:28:11.620Z,99686.38
2023-05-17T03:32:24.297Z,99687.25
2023-05-17T03:36:39.697Z,99673.91
2023-05-17T03:40:53.540Z,99687.94
2023-05-17T03:45:06.899Z,99686.66
2023-05-17T03:49:19.530Z,99696.28
2023-05-17T03:53:51.724Z,99696.06
2023-05-17T03:58:05.337Z,99701.28
2023-05-17T04:02:18.099Z,99704.50
2023-05-17T04:06:30.910Z,99707.78
2023-05-17T04:10:43.517Z,99702.97
2023-05-17T04:14:56.056Z,99703.13
2023-05-17T04:19:09.996Z,99712.22
2023-05-17T04:23:22.626Z,99709.88
2023-05-17T04:27:35.602Z,99712.19
2023-05-17T04:31:51.029Z,99716.66
2023-05-17T04:36:04.263Z,99708.19
2023-05-17T04:40:18.329Z,99711.84
2023-05-17T04:44:32.062Z,99715.00
2023-05-17T04:48:44.921Z,99725.06
2023-05-17T04:52:57.381Z,99730.22
2023-05-17T04:57:09.887Z,99738.63
2023-05-17T05:01:43.841Z,99746.56
2023-05-17T05:05:56.444Z,99742.34
2023-05-17T05:10:09.775Z,99740.63
2023-05-17T05:14:25.722Z,99749.38
2023-05-17T05:18:38.408Z,99771.94
2023-05-17T05:22:51.620Z,99764.06
2023-05-17T05:27:07.072Z,99774.25
2023-05-17T05:31:21.257Z,99766.56
2023-05-17T05:35:37.618Z,99774.72
2023-05-17T05:39:50.094Z,99772.75
2023-05-17T05:44:02.773Z,99767.97
2023-05-17T05:48:15.369Z,99774.75
2023-05-17T05:52:27.974Z,99775.19
2023-05-17T05:56:40.829Z,99780.72
2023-05-17T06:00:57.532Z,99783.72
2023-05-17T06:05:10.024Z,99793.31
2023-05-17T06:09:22.309Z,99787.59
2023-05-17T06:13:37.243Z,99794.19
2023-05-17T06:17:49.803Z,99793.59
2023-05-17T06:22:02.380Z,99796.78
2023-05-17T06:26:14.843Z,99806.19
2023-05-17T06:30:28.119Z,99805.25
2023-05-17T06:34:40.712Z,99801.91
2023-05-17T06:38:53.310Z,99804.00
2023-05-17T06:43:05.783Z,99811.03
2023-05-17T06:47:18.752Z,99810.50
2023-05-17T06:51:31.914Z,99806.72
2023-05-17T06:55:44.412Z,99815.69
2023-05-17T06:59:57.032Z,99822.78
2023-05-17T07:04:09.484Z,99820.16
2023-05-17T07:08:22.076Z,99819.06
2023-05-17T07:12:34.731Z,99825.56
2023-05-17T07:16:48.271Z,99821.72
2023-05-17T07:21:00.842Z,99829.75
2023-05-17T07:25:13.588Z,99834.38
2023-05-17T07:29:26.256Z,99836.03
2023-05-17T07:33:38.870Z,99826.22
2023-05-17T07:37:51.329Z,99823.41
2023-05-17T07:42:05.442Z,99820.72
2023-05-17T07:46:18.540Z,99814.91
2023-05-17T07:50:31.449Z,99826.00
2023-05-17T07:54:43.833Z,99817.63
2023-05-17T07:58:56.414Z,99818.31
2023-05-17T08:03:08.954Z,99826.63
2023-05-17T08:07:21.404Z,99825.00
2023-05-17T08:11:35.337Z,99824.25
2023-05-17T08:15:50.080Z,99827.56
2023-05-17T08:20:06.535Z,99822.97
2023-05-17T08:24:19.422Z,99824.75
2023-05-17T08:28:32.351Z,99830.38
2023-05-17T08:32:45.685Z,99829.66
2023-05-17T08:36:58.390Z,99840.69
2023-05-17T08:41:11.068Z,99840.63
2023-05-17T08:45:24.173Z,99839.47
2023-05-17T08:49:38.311Z,99837.75
2023-05-17T08:53:51.049Z,99840.09
2023-05-17T08:58:06.264Z,99842.09
2023-05-17T09:02:19.743Z,99839.50
2023-05-17T09:06:33.700Z,99839.75
2023-05-17T09:10:46.459Z,99833.69
2023-05-17T09:15:14.544Z,99841.53
2023-05-17T09:19:27.264Z,99842.88
2023-05-17T09:23:41.447Z,99834.00
2023-05-17T09:27:55.628Z,99836.38
2023-05-17T09:32:18.983Z,99828.31
2023-05-17T09:36:32.366Z,99823.28
2023-05-17T09:40:46.738Z,99826.88
2023-05-17T09:45:00.235Z,99828.91
2023-05-17T09:49:13.810Z,99824.53
2023-05-17T09:53:29.267Z,99814.63
2023-05-17T09:57:41.944Z,99828.44
2023-05-17T10:01:55.321Z,99820.09
2023-05-17T10:06:13.416Z,99814.41
2023-05-17T10:10:33.410Z,99808.66
2023-05-17T10:14:46.265Z,99816.31
2023-05-17T10:18:58.957Z,99808.66
2023-05-17T10:23:17.136Z,99803.75
2023-05-17T10:27:31.191Z,99801.63
2023-05-17T10:31:45.670Z,99790.59
2023-05-17T10:35:59.576Z,99801.56
2023-05-17T10:40:15.540Z,99798.88
2023-05-17T10:44:30.835Z,99782.81
2023-05-17T10:48:45.029Z,99788.91
2023-05-17T10:52:59.214Z,99786.97
2023-05-17T11:02:07.842Z,99780.88
2023-05-17T11:06:24.570Z,99793.84
2023-05-17T11:10:37.850Z,99777.66
2023-05-17T11:14:53.825Z,99779.13
2023-05-17T11:19:11.770Z,99773.84
2023-05-17T11:23:25.139Z,99782.06
2023-05-17T11:27:48.051Z,99775.09
2023-05-17T11:32:07.472Z,99780.63
2023-05-17T11:36:22.254Z,99785.75
2023-05-17T11:40:34.901Z,99776.38
2023-05-17T11:44:47.987Z,99780.09
2023-05-17T11:49:02.001Z,99785.47
2023-05-17T11:53:15.910Z,99778.25
2023-05-17T11:57:32.831Z,99781.06
2023-05-17T12:01:50.025Z,99789.41
2023-05-17T12:06:06.085Z,99786.72
2023-05-17T12:10:18.882Z,99785.19
2023-05-17T12:14:31.380Z,99790.38
2023-05-17T12:18:46.708Z,99792.75
2023-05-17T12:22:59.271Z,99781.44
2023-05-17T12:27:12.107Z,99780.16
2023-05-17T12:31:29.931Z,99772.91
2023-05-17T12:35:42.630Z,99783.72
2023-05-17T12:39:56.461Z,99784.34
2023-05-17T12:48:26.922Z,99771.53
2023-05-17T12:52:41.472Z,99773.38
2023-05-17T12:56:54.416Z,99774.91
2023-05-17T13:01:07.775Z,99771.53
2023-05-17T13:05:23.285Z,99772.81
2023-05-17T13:09:48.291Z,99771.06
2023-05-17T13:14:00.813Z,99782.66
2023-05-17T13:18:16.347Z,99777.31
2023-05-17T13:22:28.847Z,99779.44
2023-05-17T13:26:41.378Z,99779.78
2023-05-17T13:30:53.855Z,99772.97
2023-05-17T13:35:06.898Z,99780.31
2023-05-17T13:39:20.039Z,99787.41
2023-05-17T13:43:32.418Z,99785.47
2023-05-17T13:47:45.070Z,99782.41
2023-05-17T13:51:57.980Z,99784.94
2023-05-17T13:56:10.437Z,99788.63
2023-05-17T14:00:23.197Z,99791.56
2023-05-17T14:04:35.655Z,99797.38
2023-05-17T14:08:48.193Z,99789.88
2023-05-17T14:13:00.691Z,99782.03
2023-05-17T14:17:13.139Z,99784.34
2023-05-17T14:21:25.547Z,99782.69
2023-05-17T14:25:38.062Z,99791.38
2023-05-17T14:29:50.449Z,99795.69
2023-05-17T14:34:04.228Z,99807.25
2023-05-17T14:38:17.005Z,99804.16
2023-05-17T14:42:31.105Z,99802.47
2023-05-17T14:46:43.473Z,99815.72
2023-05-17T14:50:55.995Z,99828.00
2023-05-17T14:55:09.620Z,99835.00
2023-05-17T14:59:22.300Z,99835.72
2023-05-17T15:03:35.307Z,99838.16
2023-05-17T15:07:47.942Z,99841.13
2023-05-17T15:12:01.820Z,99859.22
2023-05-17T15:16:14.278Z,99862.78
2023-05-17T15:20:26.765Z,99860.88
2023-05-17T15:24:39.910Z,99860.75
2023-05-17T15:28:52.451Z,99853.38
2023-05-17T15:33:05.115Z,99843.63
2023-05-17T15:37:17.643Z,99847.31
2023-05-17T15:41:31.987Z,99846.94
2023-05-17T15:45:44.444Z,99843.84
2023-05-17T15:49:58.397Z,99855.75
2023-05-17T15:54:11.004Z,99865.53
2023-05-17T15:58:25.903Z,99868.03
2023-05-17T16:02:38.398Z,99865.66
2023-05-17T16:06:50.963Z,99863.63
2023-05-17T16:11:03.754Z,99860.75
2023-05-17T16:15:16.521Z,99860.50
2023-05-17T16:19:30.866Z,99866.63
2023-05-17T16:23:43.820Z,99869.06
2023-05-17T16:27:56.199Z,99867.47
2023-05-17T16:32:08.700Z,99872.28
2023-05-17T16:36:22.957Z,99877.84
2023-05-17T16:40:35.882Z,99884.81
2023-05-17T16:44:48.326Z,99884.13
2023-05-17T16:49:00.767Z,99901.56
2023-05-17T16:53:13.185Z,99899.59
2023-05-17T16:57:25.692Z,99903.06
2023-05-17T17:05:51.018Z,99902.19
2023-05-17T17:10:03.870Z,99901.47
2023-05-17T17:14:16.599Z,99919.44
2023-05-17T17:18:29.725Z,99922.03
2023-05-17T17:22:42.344Z,99918.25
2023-05-17T17:26:54.823Z,99909.78
2023-05-17T17:35:20.094Z,99917.38
2023-05-17T17:39:32.512Z,99920.81
2023-05-17T17:43:47.272Z,99922.88
2023-05-17T17:47:59.741Z,99921.34
2023-05-17T17:52:16.470Z,99930.56
2023-05-17T17:56:29.008Z,99912.50
2023-05-17T18:00:41.876Z,99928.06
2023-05-17T18:04:55.507Z,99918.78
2023-05-17T18:09:08.604Z,99922.03
2023-05-17T18:13:21.125Z,99924.81
2023-05-17T18:17:34.868Z,99930.91
2023-05-17T18:21:47.480Z,99930.06
2023-05-17T18:25:59.956Z,99941.00
2023-05-17T18:30:12.852Z,99936.59
2023-05-17T18:34:25.870Z,99940.53
2023-05-17T18:38:38.389Z,99941.97
2023-05-17T18:42:50.999Z,99939.69
2023-05-17T18:47:03.877Z,99948.53
2023-05-17T18:51:16.362Z,99949.75
2023-05-17T18:55:28.813Z,99968.47
2023-05-17T18:59:41.841Z,99976.22
2023-05-17T19:03:57.620Z,99982.97
2023-05-17T19:08:09.999Z,99983.81
2023-05-17T19:12:23.613Z,99996.59
2023-05-17T19:16:36.447Z,99995.22
2023-05-17T19:20:49.072Z,99993.69
2023-05-17T19:25:01.538Z,99998.84
2023-05-17T19:29:13.938Z,99999.94
2023-05-17T19:33:26.839Z,99994.72
2023-05-17T19:37:39.332Z,100000.78
2023-05-17T19:41:51.908Z,99993.81
2023-05-17T19:46:04.439Z,100003.75
2023-05-17T19:50:17.182Z,100015.53
2023-05-17T19:54:30.254Z,100014.16
2023-05-17T19:58:42.667Z,100015.31
2023-05-17T20:02:55.250Z,100018.16
2023-05-17T20:07:07.906Z,100017.50
2023-05-17T20:11:20.438Z,100018.31
2023-05-17T20:15:33.020Z,100020.41
2023-05-17T20:19:45.464Z,100023.63
2023-05-17T20:24:01.708Z,100020.78
2023-05-17T20:28:14.401Z,100017.22
2023-05-17T20:32:26.965Z,100016.34
2023-05-17T20:36:39.369Z,100020.88
2023-05-17T20:40:52.451Z,100018.06
2023-05-17T20:45:05.732Z,100017.34
2023-05-17T20:49:18.415Z,100021.34
2023-05-17T20:53:31.278Z,100020.91
2023-05-17T20:57:44.805Z,100017.72
2023-05-17T21:01:57.956Z,100036.41
2023-05-17T21:06:11.356Z,100030.19
2023-05-17T21:10:23.787Z,100027.50
2023-05-17T21:14:36.189Z,100031.28
2023-05-17T21:18:48.614Z,100040.28
2023-05-17T21:23:01.023Z,100047.50
2023-05-17T21:27:13.481Z,100044.78
2023-05-17T21:31:28.407Z,100041.38
2023-05-17T21:35:40.834Z,100029.00
2023-05-17T21:39:53.276Z,100035.53
2023-05-17T21:44:05.908Z,100028.38
2023-05-17T21:48:18.227Z,100033.13
2023-05-17T21:52:30.773Z,100038.06
2023-05-17T21:56:43.122Z,100038.97
2023-05-17T22:00:55.502Z,100044.38
2023-05-17T22:05:08.246Z,100035.97
2023-05-17T22:09:20.677Z,100042.59
2023-05-17T22:13:33.223Z,100035.78
2023-05-17T22:17:51.882Z,100044.38
2023-05-17T22:22:05.484Z,100042.41
2023-05-17T22:26:17.789Z,100046.31
2023-05-17T22:30:30.388Z,100045.97
2023-05-17T22:34:43.378Z,100043.66
2023-05-17T22:38:56.975Z,100044.47
2023-05-17T22:43:10.910Z,100056.66
2023-05-17T22:47:24.440Z,100055.69
2023-05-17T22:51:37.191Z,100054.41
2023-05-17T22:55:50.137Z,100056.38
2023-05-17T23:00:05.278Z,100047.75
2023-05-17T23:04:17.771Z,100039.69
2023-05-17T23:08:30.623Z,100042.72
2023-05-17T23:12:43.064Z,100052.63
2023-05-17T23:16:55.478Z,100042.72
2023-05-17T23:21:08.514Z,100038.03
2023-05-17T23:25:21.476Z,100034.59
2023-05-17T23:29:34.089Z,100025.72
2023-05-17T23:33:46.502Z,100022.66
2023-05-17T23:38:00.692Z,100033.34
2023-05-17T23:42:13.439Z,100034.28
2023-05-17T23:46:25.999Z,100031.06
2023-05-17T23:50:39.499Z,100021.44
2023-05-17T23:54:52.253Z,100031.53
2023-05-17T23:59:04.732Z,100026.66
